Time,TemperatureF,DewpointF,PressureIn,WindDirection,WindDirectionDegrees,WindSpeedMPH,WindSpeedGustMPH,Humidity,HourlyPrecipIn,Conditions,Clouds,dailyrainin,SoftwareType,DateUTC
2013-02-22 00:04:00,20.4,14.9,29.63,NE,45,0.0,0.0,79,0.00,,,0.00,WUHU216HW,2013-02-22 05:04:00,
2013-02-22 00:10:00,20.4,14.9,29.63,NNE,23,0.0,0.0,79,0.00,,,0.00,WUHU216HW,2013-02-22 05:10:00,
2013-02-22 00:15:00,20.4,14.9,29.63,NNE,23,0.0,0.0,79,0.00,,,0.00,WUHU216HW,2013-02-22 05:15:00,
2013-02-22 00:20:00,20.6,15.1,29.63,NNE,23,0.0,0.0,79,0.00,,,0.00,WUHU216HW,2013-02-22 05:20:00,
2013-02-22 00:25:00,20.8,15.3,29.63,South,180,0.0,1.1,79,0.00,,,0.00,WUHU216HW,2013-02-22 05:25:00,
2013-02-22 00:27:00,20.8,15.3,29.63,South,180,0.0,1.1,79,0.00,,,0.00,WUHU216HW,2013-02-22 05:27:00,
2013-02-22 06:05:00,20.8,15.3,29.63,South,180,0.0,0.0,79,0.00,,,0.00,WUHU216HW,2013-02-22 11:05:00,
2013-02-22 06:10:00,16.1,12.0,29.62,NE,45,0.8,1.7,84,0.00,,,0.00,WUHU216HW,2013-02-22 11:10:00,
2013-02-22 06:15:00,15.9,11.9,29.62,NE,45,0.0,1.7,84,0.00,,,0.00,WUHU216HW,2013-02-22 11:15:00,
2013-02-22 06:20:00,15.6,11.3,29.62,NE,45,1.1,1.1,83,0.00,,,0.00,WUHU216HW,2013-02-22 11:20:00,
2013-02-22 06:24:00,15.6,11.3,29.63,NE,45,1.3,1.3,83,0.00,,,0.00,WUHU216HW,2013-02-22 11:24:00,
2013-02-22 06:29:00,15.4,11.1,29.63,NNE,23,1.7,3.1,83,0.00,,,0.00,WUHU216HW,2013-02-22 11:29:00,
2013-02-22 06:34:00,15.0,10.8,29.63,NNE,23,0.0,3.1,83,0.00,,,0.00,WUHU216HW,2013-02-22 11:34:00,
2013-02-22 06:39:00,15.0,10.8,29.63,South,180,3.3,3.3,83,0.00,,,0.00,WUHU216HW,2013-02-22 11:39:00,
2013-02-22 06:44:00,14.9,10.6,29.62,South,180,0.0,3.3,83,0.00,,,0.00,WUHU216HW,2013-02-22 11:44:00,
2013-02-22 06:49:00,15.2,10.9,29.63,SSE,158,3.1,4.0,83,0.00,,,0.00,WUHU216HW,2013-02-22 11:49:00,
2013-02-22 06:54:00,15.2,10.9,29.63,SSE,158,4.4,4.4,83,0.00,,,0.00,WUHU216HW,2013-02-22 11:54:00,
2013-02-22 07:00:00,15.0,10.8,29.63,SSE,158,1.7,4.4,83,0.00,,,0.00,WUHU216HW,2013-02-22 12:00:00,
2013-02-22 07:05:00,15.0,10.8,29.63,SSE,158,3.5,3.5,83,0.00,,,0.00,WUHU216HW,2013-02-22 12:05:00,
2013-02-22 07:10:00,14.9,10.6,29.63,SSE,158,5.1,5.1,83,0.00,,,0.00,WUHU216HW,2013-02-22 12:10:00,
2013-02-22 07:15:00,15.2,10.9,29.63,SSE,158,7.6,7.6,83,0.00,,,0.00,WUHU216HW,2013-02-22 12:15:00,
2013-02-22 07:20:00,15.6,11.5,29.62,South,180,5.1,7.6,84,0.00,,,0.00,WUHU216HW,2013-02-22 12:20:00,
2013-02-22 07:25:00,16.3,12.2,29.62,SSE,158,2.9,7.6,84,0.00,,,0.00,WUHU216HW,2013-02-22 12:25:00,
2013-02-22 07:30:00,16.5,12.4,29.63,SSE,158,3.1,3.1,84,0.00,,,0.00,WUHU216HW,2013-02-22 12:30:00,
2013-02-22 07:35:00,16.8,12.7,29.63,SSE,158,3.3,3.3,84,0.00,,,0.00,WUHU216HW,2013-02-22 12:35:00,
2013-02-22 07:41:00,17.7,13.6,29.63,South,180,6.0,6.0,84,0.00,,,0.00,WUHU216HW,2013-02-22 12:41:00,
2013-02-22 07:46:00,18.3,14.4,29.63,SSE,158,6.7,6.7,85,0.00,,,0.00,WUHU216HW,2013-02-22 12:46:00,
2013-02-22 07:51:00,18.6,14.5,29.62,SSE,158,3.8,6.7,84,0.00,,,0.00,WUHU216HW,2013-02-22 12:51:00,
2013-02-22 07:56:00,19.0,14.9,29.62,South,180,7.8,7.8,84,0.00,,,0.00,WUHU216HW,2013-02-22 12:56:00,
2013-02-22 08:01:00,19.4,15.2,29.61,SSE,158,7.6,7.8,84,0.00,,,0.00,WUHU216HW,2013-02-22 13:01:00,
2013-02-22 08:06:00,19.5,15.4,29.61,NNE,23,6.2,7.6,84,0.00,,,0.00,WUHU216HW,2013-02-22 13:06:00,
2013-02-22 08:11:00,19.7,15.6,29.60,SSE,158,7.3,7.3,84,0.00,,,0.00,WUHU216HW,2013-02-22 13:11:00,
2013-02-22 08:16:00,19.9,15.5,29.60,SSE,158,7.6,8.9,83,0.00,,,0.00,WUHU216HW,2013-02-22 13:16:00,
2013-02-22 08:22:00,20.3,15.8,29.61,South,180,6.7,8.9,83,0.00,,,0.00,WUHU216HW,2013-02-22 13:22:00,
2013-02-22 08:24:00,20.4,16.0,29.61,SSE,158,5.1,8.9,83,0.00,,,0.00,WUHU216HW,2013-02-22 13:24:00,